createdAt,value
2022-08-30T00:03:03.859Z,93821.34
2022-08-30T00:08:07.204Z,93809.25
2022-08-30T00:13:12.557Z,93805.28
2022-08-30T00:18:18.369Z,93829.44
2022-08-30T00:23:21.800Z,93818.22
2022-08-30T00:28:24.970Z,93824.66
2022-08-30T00:33:29.886Z,93820.78
2022-08-30T00:38:33.079Z,93815.00
2022-08-30T00:43:37.082Z,93815.81
2022-08-30T00:48:45.323Z,93811.97
2022-08-30T00:53:51.987Z,93801.66
2022-08-30T00:58:57.928Z,93797.22
2022-08-30T01:04:01.186Z,93800.28
2022-08-30T01:09:06.423Z,93783.59
2022-08-30T01:14:11.995Z,93793.94
2022-08-30T01:19:39.981Z,93748.78
2022-08-30T01:24:45.014Z,93785.91
2022-08-30T01:29:48.632Z,93799.78
2022-08-30T01:34:51.661Z,93795.97
2022-08-30T01:39:54.985Z,93793.63
2022-08-30T01:44:57.929Z,93803.25
2022-08-30T01:50:00.994Z,93800.34
2022-08-30T01:55:06.058Z,93801.88
2022-08-30T02:00:11.313Z,93794.72
2022-08-30T02:05:17.253Z,93807.06
2022-08-30T02:10:21.264Z,93805.75
2022-08-30T02:15:24.318Z,93792.41
2022-08-30T02:20:27.876Z,93799.16
2022-08-30T02:25:30.839Z,93795.97
2022-08-30T02:30:34.867Z,93805.13
2022-08-30T02:35:38.704Z,93805.72
2022-08-30T02:40:42.313Z,93799.50
2022-08-30T02:45:45.989Z,93786.34
2022-08-30T02:50:51.880Z,93795.31
2022-08-30T02:55:54.989Z,93796.22
2022-08-30T03:00:58.261Z,93805.25
2022-08-30T03:06:03.521Z,93795.84
2022-08-30T03:11:07.805Z,93807.63
2022-08-30T03:16:11.122Z,93792.72
2022-08-30T03:21:16.369Z,93812.50
2022-08-30T03:26:20.089Z,93801.59
2022-08-30T03:31:23.785Z,93793.44
2022-08-30T03:36:26.863Z,93802.06
2022-08-30T03:41:30.946Z,93803.34
2022-08-30T03:46:37.485Z,93806.47
2022-08-30T03:51:41.065Z,93809.31
2022-08-30T03:56:45.001Z,93813.34
2022-08-30T04:01:48.178Z,93806.72
2022-08-30T04:06:51.894Z,93812.22
2022-08-30T04:11:55.342Z,93810.69
2022-08-30T04:16:58.589Z,93811.63
2022-08-30T04:22:02.323Z,93820.75
2022-08-30T04:27:05.692Z,93824.25
2022-08-30T04:32:09.260Z,93825.00
2022-08-30T04:37:13.050Z,93818.72
2022-08-30T04:42:16.359Z,93841.38
2022-08-30T04:47:19.449Z,93834.22
2022-08-30T04:52:23.445Z,93827.84
2022-08-30T04:57:28.215Z,93843.78
2022-08-30T05:02:31.694Z,93845.59
2022-08-30T05:07:35.689Z,93847.88
2022-08-30T05:12:39.561Z,93820.25
2022-08-30T05:17:43.791Z,93807.44
2022-08-30T05:22:53.462Z,93839.16
2022-08-30T05:27:57.704Z,93829.34
2022-08-30T05:33:02.595Z,93845.81
2022-08-30T05:38:05.606Z,93847.56
2022-08-30T05:43:11.921Z,93854.00
2022-08-30T05:48:15.333Z,93844.44
2022-08-30T05:53:19.357Z,93856.34
2022-08-30T05:58:23.242Z,93864.91
2022-08-30T06:03:27.115Z,93868.06
2022-08-30T06:08:30.686Z,93875.41
2022-08-30T06:13:33.855Z,93872.25
2022-08-30T06:18:36.936Z,93866.22
2022-08-30T06:23:40.207Z,93873.84
2022-08-30T06:28:43.874Z,93874.13
2022-08-30T06:33:47.919Z,93865.03
2022-08-30T06:38:57.072Z,93863.38
2022-08-30T06:44:02.443Z,93870.34
2022-08-30T06:49:06.323Z,93864.16
2022-08-30T06:54:12.098Z,93864.78
2022-08-30T06:59:15.293Z,93867.03
2022-08-30T07:04:18.901Z,93862.97
2022-08-30T07:09:23.142Z,93866.41
2022-08-30T07:14:26.738Z,93868.47
2022-08-30T07:19:29.704Z,93863.38
2022-08-30T07:24:32.747Z,93870.13
2022-08-30T07:29:36.058Z,93874.03
2022-08-30T07:34:39.734Z,93885.56
2022-08-30T07:39:47.576Z,93893.19
2022-08-30T07:44:54.791Z,93898.78
2022-08-30T07:50:01.672Z,93896.84
2022-08-30T07:55:06.217Z,93898.19
2022-08-30T08:00:10.124Z,93904.34
2022-08-30T08:05:18.138Z,93910.75
2022-08-30T08:10:22.845Z,93914.34
2022-08-30T08:15:27.069Z,93895.41
2022-08-30T08:20:30.982Z,93914.09
2022-08-30T08:25:38.514Z,93908.97
2022-08-30T08:30:45.161Z,93931.06
2022-08-30T08:35:51.689Z,93923.56
2022-08-30T08:41:22.261Z,93936.56
2022-08-30T08:46:31.028Z,93947.69
2022-08-30T08:51:59.266Z,93948.25
2022-08-30T08:57:03.062Z,93946.44
2022-08-30T09:02:34.588Z,93940.06
2022-08-30T09:07:43.204Z,93945.97
2022-08-30T09:12:46.272Z,93940.34
2022-08-30T09:17:59.296Z,93953.69
2022-08-30T09:23:27.910Z,93936.72
2022-08-30T09:28:35.573Z,93933.75
2022-08-30T09:33:39.068Z,93940.44
2022-08-30T09:38:42.319Z,93928.06
2022-08-30T09:43:45.336Z,93930.72
2022-08-30T09:48:48.724Z,93921.72
2022-08-30T09:54:17.399Z,93921.59
2022-08-30T09:59:49.280Z,93905.50
2022-08-30T10:05:03.119Z,93911.50
2022-08-30T10:10:21.679Z,93913.97
2022-08-30T10:15:34.455Z,93915.09
2022-08-30T10:20:54.961Z,93901.41
2022-08-30T10:26:25.716Z,93893.31
2022-08-30T10:31:50.705Z,93907.31
2022-08-30T10:37:14.460Z,93901.63
2022-08-30T10:42:22.113Z,93902.75
2022-08-30T10:47:45.697Z,93890.44
2022-08-30T10:53:03.815Z,93904.25
2022-08-30T10:58:08.125Z,93902.19
2022-08-30T11:03:27.794Z,93901.19
2022-08-30T11:09:09.076Z,93903.56
2022-08-30T11:14:17.684Z,93888.59
2022-08-30T11:19:23.320Z,93900.75
2022-08-30T11:24:30.557Z,93892.25
2022-08-30T11:29:39.291Z,93888.66
2022-08-30T11:34:48.351Z,93887.56
2022-08-30T11:39:55.319Z,93876.53
2022-08-30T11:45:24.854Z,93884.44
2022-08-30T11:50:35.215Z,93873.09
2022-08-30T11:55:59.888Z,93886.91
2022-08-30T12:01:40.924Z,93879.09
2022-08-30T12:06:43.155Z,93887.56
2022-08-30T12:12:02.606Z,93882.81
2022-08-30T12:17:43.315Z,93867.38
2022-08-30T12:22:46.368Z,93869.09
2022-08-30T12:27:50.961Z,93865.22
2022-08-30T12:32:54.291Z,93849.44
2022-08-30T12:38:12.951Z,93855.25
2022-08-30T12:43:49.824Z,93846.81
2022-08-30T12:48:54.107Z,93843.03
2022-08-30T12:54:03.387Z,93848.31
2022-08-30T12:59:06.394Z,93852.63
2022-08-30T13:04:23.065Z,93844.75
2022-08-30T13:09:44.216Z,93835.44
2022-08-30T13:14:50.075Z,93833.50
2022-08-30T13:19:57.327Z,93833.16
2022-08-30T13:25:03.475Z,93843.81
2022-08-30T13:30:13.592Z,93839.38
2022-08-30T13:35:17.995Z,93829.81
2022-08-30T13:40:23.008Z,93810.03
2022-08-30T13:45:41.967Z,93810.03
2022-08-30T13:50:45.887Z,93802.78
2022-08-30T13:55:49.386Z,93810.94
2022-08-30T14:00:53.873Z,93800.53
2022-08-30T14:06:29.538Z,93806.94
2022-08-30T14:11:24.136Z,93804.81
2022-08-30T14:16:28.486Z,93784.28
2022-08-30T14:21:32.488Z,93788.94
2022-08-30T14:26:53.868Z,93773.50
2022-08-30T14:31:59.961Z,93766.31
2022-08-30T14:37:03.442Z,93770.63
2022-08-30T14:42:07.628Z,93765.22
2022-08-30T14:47:13.240Z,93760.34
2022-08-30T14:52:16.327Z,93767.06
2022-08-30T14:57:19.977Z,93758.13
2022-08-30T15:02:26.969Z,93757.78
2022-08-30T15:07:31.049Z,93753.47
2022-08-30T15:12:34.545Z,93759.81
2022-08-30T15:17:37.820Z,93763.25
2022-08-30T15:22:41.841Z,93754.19
2022-08-30T15:27:49.956Z,93758.91
2022-08-30T15:32:53.586Z,93757.84
2022-08-30T15:37:57.018Z,93758.09
2022-08-30T15:43:00.601Z,93752.81
2022-08-30T15:48:04.686Z,93768.97
2022-08-30T15:53:08.242Z,93767.28
2022-08-30T15:58:11.492Z,93755.50
2022-08-30T16:03:15.242Z,93769.50
2022-08-30T16:08:19.403Z,93775.94
2022-08-30T16:13:24.918Z,93794.31
2022-08-30T16:18:34.959Z,93782.59
2022-08-30T16:30:04.089Z,93796.28
2022-08-30T16:35:07.651Z,93779.63
2022-08-30T16:40:11.680Z,93773.69
2022-08-30T16:45:16.033Z,93774.44
2022-08-30T16:50:21.733Z,93753.75
2022-08-30T16:55:25.027Z,93772.59
2022-08-30T17:00:28.687Z,93774.72
2022-08-30T17:05:31.913Z,93768.06
2022-08-30T17:10:38.611Z,93781.53
2022-08-30T17:15:45.923Z,93771.56
2022-08-30T17:20:49.988Z,93762.09
2022-08-30T17:25:54.121Z,93774.38
2022-08-30T17:30:57.925Z,93794.13
2022-08-30T17:36:00.839Z,93789.47
2022-08-30T17:41:07.441Z,93797.00
2022-08-30T17:46:18.843Z,93791.94
2022-08-30T17:51:22.145Z,93805.59
2022-08-30T17:56:34.093Z,93811.31
2022-08-30T18:01:38.864Z,93808.84
2022-08-30T18:06:42.393Z,93811.81
2022-08-30T18:11:45.855Z,93817.56
2022-08-30T18:16:54.010Z,93828.16
2022-08-30T18:21:58.027Z,93825.63
2022-08-30T18:27:05.197Z,93835.78
2022-08-30T18:32:09.007Z,93816.88
2022-08-30T18:37:14.035Z,93826.38
2022-08-30T18:42:20.045Z,93845.72
2022-08-30T18:47:24.841Z,93850.50
2022-08-30T18:52:28.431Z,93857.69
2022-08-30T18:57:32.298Z,93860.53
2022-08-30T19:02:36.787Z,93867.25
2022-08-30T19:07:40.744Z,93874.91
2022-08-30T19:12:43.763Z,93874.75
2022-08-30T19:17:48.255Z,93879.19
2022-08-30T19:23:09.514Z,93886.47
2022-08-30T19:28:14.968Z,93891.69
2022-08-30T19:33:20.174Z,93877.06
2022-08-30T19:38:26.489Z,93883.13
2022-08-30T19:43:40.280Z,93883.13
2022-08-30T19:48:43.802Z,93879.84
2022-08-30T19:53:47.103Z,93874.47
2022-08-30T19:58:53.368Z,93897.50
2022-08-30T20:04:04.546Z,93895.59
2022-08-30T20:09:10.413Z,93890.41
2022-08-30T20:14:15.578Z,93896.41
2022-08-30T20:19:27.210Z,93916.09
2022-08-30T20:24:32.312Z,93888.97
2022-08-30T20:29:35.684Z,93922.84
2022-08-30T20:34:40.353Z,93915.41
2022-08-30T20:39:43.327Z,93911.41
2022-08-30T20:44:47.490Z,93914.53
2022-08-30T20:49:51.652Z,93919.94
2022-08-30T20:54:55.226Z,93922.88
2022-08-30T21:00:01.665Z,93918.69
2022-08-30T21:05:05.843Z,93907.75
2022-08-30T21:10:09.960Z,93891.41
2022-08-30T21:15:36.309Z,93910.09
2022-08-30T21:20:36.341Z,93911.00
2022-08-30T21:25:40.753Z,93917.34
2022-08-30T21:30:44.169Z,93903.00
2022-08-30T21:36:06.313Z,93892.13
2022-08-30T21:41:09.326Z,93896.63
2022-08-30T21:46:13.526Z,93892.09
2022-08-30T21:51:17.403Z,93890.88
2022-08-30T21:56:23.505Z,93877.84
2022-08-30T22:01:29.468Z,93881.38
2022-08-30T22:06:35.890Z,93873.19
2022-08-30T22:11:39.383Z,93875.94
2022-08-30T22:16:43.160Z,93874.28
2022-08-30T22:21:48.459Z,93856.59
2022-08-30T22:26:52.322Z,93835.13
2022-08-30T22:31:55.821Z,93852.41
2022-08-30T22:36:59.757Z,93840.25
2022-08-30T22:42:02.870Z,93843.19
2022-08-30T22:47:08.556Z,93845.72
2022-08-30T22:52:13.007Z,93846.19
2022-08-30T22:57:19.611Z,93820.78
2022-08-30T23:02:22.989Z,93835.56
2022-08-30T23:07:26.761Z,93828.50
2022-08-30T23:12:31.106Z,93778.13
2022-08-30T23:17:34.090Z,93824.22
2022-08-30T23:22:42.978Z,93815.16
2022-08-30T23:28:05.678Z,93808.31
2022-08-30T23:33:27.292Z,93803.56
2022-08-30T23:38:49.414Z,93781.53
2022-08-30T23:44:10.990Z,93794.69
2022-08-30T23:49:32.593Z,93798.16
2022-08-30T23:54:55.054Z,93769.34
